CCGS Tanu — CGBY — position and weather

sailwx.info

Track history (hours):
 
Tides and Currents Weather Stations Pressure Air Temp Water Temp Dewpoint Dewpoint Depression Visibility Wind Speed Wind Dir Waves Ship Positions

CCGS Tanu (Canada)

Ship's website: http://www.ccg-gcc.gc.ca/vessels-navires/details_e.asp?id=M-5

Last reported at 2016-May-26 19:33 UTC. Time now 2016-May-26 20:12 UTC.
Position N 50°50' W 127°42'.

Length 54.5 m; beam 9.7 m; draft 3.7 m.

Type: SAR. MMSI: 316091000.

Date/timePositionNaut miles runAvg speedWind from/ knotsBaromVisibWave heightAir tempDewpointWater temp
2016-May-26 19:33N 50°50' W 127°42'1010.2
2016-May-26 18:33N 50°44' W 127°28'1 0.2
2016-May-26 13:32N 50°43' W 127°29'0 0.0
2016-May-26 12:32N 50°43' W 127°29'0 0.0
2016-May-26 10:26N 50°43' W 127°29'0 0.0
2016-May-26 09:32N 50°43' W 127°29'0 0.0
2016-May-26 08:32N 50°43' W 127°29'0 0.0
2016-May-25 19:20N 50°43' W 127°29'0 0.0
2016-May-25 17:26N 50°43' W 127°29'0 0.0
2016-May-25 16:32N 50°43' W 127°29'0 0.0
2016-May-25 13:20N 50°43' W 127°29'0 0.0
2016-May-25 08:26N 50°43' W 127°29'0 0.0
2016-May-25 02:26N 50°43' W 127°29'0 0.0
2016-May-25 01:26N 50°43' W 127°29'0 0.0
2016-May-24 22:14N 50°43' W 127°29'0 0.0
2016-May-24 20:20N 50°43' W 127°29'0 0.0
2016-May-24 18:32N 50°43' W 127°29'1 1.0
2016-May-24 17:33N 50°43' W 127°28'2 0.4
2016-May-24 14:06N 50°45' W 127°28'711.8
2016-May-24 13:33N 50°51' W 127°24'4 4.1
2016-May-24 12:29N 50°55' W 127°21'0 0.0
2016-May-24 11:29N 50°55' W 127°21'0 0.0
2016-May-24 10:29N 50°55' W 127°21'0 0.0
2016-May-24 09:29N 50°55' W 127°21'0 0.0
2016-May-24 08:29N 50°55' W 127°21'0 0.0
2016-May-24 07:29N 50°55' W 127°21'0 0.0
2016-May-24 06:29N 50°55' W 127°21'0 0.0
2016-May-24 05:29N 50°55' W 127°21'0 0.0
2016-May-24 04:29N 50°55' W 127°21'0 0.0
2016-May-24 03:32N 50°55' W 127°21'0 0.0
2016-May-24 02:30N 50°55' W 127°21'7 7.9
2016-May-24 01:33N 50°58' W 127°32'1211.6
2016-May-24 00:33N 51°06' W 127°45'25 3.5
2016-May-23 17:29N 51°31' W 127°52'2 0.3
2016-May-23 10:22N 51°32' W 127°55'0 0.0
2016-May-23 04:22N 51°32' W 127°55'0 0.0
2016-May-23 03:28N 51°32' W 127°55'0 0.0
2016-May-23 01:10N 51°32' W 127°55'0 0.1
2016-May-23 00:32N 51°32' W 127°55'  
Track history (hours):
 
Tides and Currents Weather Stations Pressure Air Temp Water Temp Dewpoint Dewpoint Depression Visibility Wind Speed Wind Dir Waves Ship Positions

CCGS Tanu (Canada)

Ship's website: http://www.ccg-gcc.gc.ca/vessels-navires/details_e.asp?id=M-5

Last reported at 2016-May-26 19:33 UTC. Time now 2016-May-26 20:12 UTC.
Position N 50°50' W 127°42'.

Length 54.5 m; beam 9.7 m; draft 3.7 m.

Type: SAR. MMSI: 316091000.

Date/timePositionNaut miles runAvg speedWind from/ knotsBaromVisibWave heightAir tempDewpointWater temp
2016-May-26 19:33N 50°50' W 127°42'1010.2
2016-May-26 18:33N 50°44' W 127°28'1 0.2
2016-May-26 13:32N 50°43' W 127°29'0 0.0
2016-May-26 12:32N 50°43' W 127°29'0 0.0
2016-May-26 10:26N 50°43' W 127°29'0 0.0
2016-May-26 09:32N 50°43' W 127°29'0 0.0
2016-May-26 08:32N 50°43' W 127°29'0 0.0
2016-May-25 19:20N 50°43' W 127°29'0 0.0
2016-May-25 17:26N 50°43' W 127°29'0 0.0
2016-May-25 16:32N 50°43' W 127°29'0 0.0
2016-May-25 13:20N 50°43' W 127°29'0 0.0
2016-May-25 08:26N 50°43' W 127°29'0 0.0
2016-May-25 02:26N 50°43' W 127°29'0 0.0
2016-May-25 01:26N 50°43' W 127°29'0 0.0
2016-May-24 22:14N 50°43' W 127°29'0 0.0
2016-May-24 20:20N 50°43' W 127°29'0 0.0
2016-May-24 18:32N 50°43' W 127°29'1 1.0
2016-May-24 17:33N 50°43' W 127°28'2 0.4
2016-May-24 14:06N 50°45' W 127°28'711.8
2016-May-24 13:33N 50°51' W 127°24'4 4.1
2016-May-24 12:29N 50°55' W 127°21'0 0.0
2016-May-24 11:29N 50°55' W 127°21'0 0.0
2016-May-24 10:29N 50°55' W 127°21'0 0.0
2016-May-24 09:29N 50°55' W 127°21'0 0.0
2016-May-24 08:29N 50°55' W 127°21'0 0.0
2016-May-24 07:29N 50°55' W 127°21'0 0.0
2016-May-24 06:29N 50°55' W 127°21'0 0.0
2016-May-24 05:29N 50°55' W 127°21'0 0.0
2016-May-24 04:29N 50°55' W 127°21'0 0.0
2016-May-24 03:32N 50°55' W 127°21'0 0.0
2016-May-24 02:30N 50°55' W 127°21'7 7.9
2016-May-24 01:33N 50°58' W 127°32'1211.6
2016-May-24 00:33N 51°06' W 127°45'25 3.5
2016-May-23 17:29N 51°31' W 127°52'2 0.3
2016-May-23 10:22N 51°32' W 127°55'0 0.0
2016-May-23 04:22N 51°32' W 127°55'0 0.0
2016-May-23 03:28N 51°32' W 127°55'0 0.0
2016-May-23 01:10N 51°32' W 127°55'0 0.1
2016-May-23 00:32N 51°32' W 127°55'  

Dump ship's entire track history